createdAt,value
2019-04-05T00:00:30.982Z,69.40
2019-04-05T00:01:30.974Z,69.40
2019-04-05T00:02:30.959Z,76.10
2019-04-05T00:03:30.952Z,75.10
2019-04-05T00:04:30.938Z,78.80
2019-04-05T00:05:30.924Z,74.70
2019-04-05T00:06:30.952Z,79.30
2019-04-05T00:07:30.900Z,79.20
2019-04-05T00:08:30.892Z,82.20
2019-04-05T00:09:30.882Z,81.30
2019-04-05T00:10:30.870Z,79.50
2019-04-05T00:11:30.886Z,80.20
2019-04-05T00:12:30.848Z,81.40
2019-04-05T00:13:30.840Z,85.40
2019-04-05T00:14:30.822Z,86.70
2019-04-05T00:15:30.836Z,85.10
2019-04-05T00:16:30.808Z,86.90
2019-04-05T00:17:30.824Z,87.10
2019-04-05T00:18:30.784Z,88.40
2019-04-05T00:19:30.783Z,88.80
2019-04-05T00:20:30.759Z,87.70
2019-04-05T00:21:30.748Z,88.40
2019-04-05T00:22:30.734Z,81.60
2019-04-05T00:23:30.769Z,91.10
2019-04-05T00:24:30.720Z,91.60
2019-04-05T00:25:30.703Z,91.50
2019-04-05T00:26:30.698Z,92.90
2019-04-05T00:27:30.689Z,88.30
2019-04-05T00:28:30.677Z,91.60
2019-04-05T00:29:30.686Z,86.40
2019-04-05T00:30:30.649Z,88.50
2019-04-05T00:31:30.645Z,92.10
2019-04-05T00:32:31.592Z,91.60
2019-04-05T00:33:30.625Z,89.30
2019-04-05T00:34:30.608Z,88.90
2019-04-05T00:35:30.621Z,91.90
2019-04-05T00:36:30.579Z,91.80
2019-04-05T00:37:30.580Z,92.00
2019-04-05T00:38:30.559Z,88.80
2019-04-05T00:39:30.552Z,90.00
2019-04-05T00:40:30.574Z,89.60
2019-04-05T00:41:32.949Z,88.10
2019-04-05T00:42:30.549Z,88.70
2019-04-05T00:43:30.514Z,84.00
2019-04-05T00:44:30.499Z,87.40
2019-04-05T00:45:30.498Z,84.10
2019-04-05T00:46:30.475Z,88.80
2019-04-05T00:47:30.484Z,90.10
2019-04-05T00:48:30.457Z,85.00
2019-04-05T00:49:30.442Z,83.20
2019-04-05T00:50:30.426Z,90.90
2019-04-05T00:52:29.436Z,85.80
2019-04-05T00:53:30.394Z,86.00
2019-04-05T00:54:30.384Z,89.40
2019-04-05T00:55:30.383Z,86.00
2019-04-05T00:56:30.370Z,85.90
2019-04-05T00:57:30.359Z,86.60
2019-04-05T00:58:30.345Z,85.00
2019-04-05T00:59:30.329Z,85.90
2019-04-05T01:00:30.322Z,85.10
2019-04-05T01:01:30.318Z,89.40
2019-04-05T01:02:30.297Z,87.50
2019-04-05T01:03:30.329Z,90.60
2019-04-05T01:04:30.279Z,89.90
2019-04-05T01:05:30.272Z,89.90
2019-04-05T01:06:30.260Z,89.70
2019-04-05T01:07:30.242Z,90.10
2019-04-05T01:08:30.237Z,93.50
2019-04-05T01:09:30.219Z,96.70
2019-04-05T01:10:30.228Z,95.50
2019-04-05T01:11:30.207Z,92.70
2019-04-05T01:12:32.005Z,94.20
2019-04-05T01:13:30.175Z,94.60
2019-04-05T01:14:30.170Z,94.00
2019-04-05T01:15:40.158Z,94.50
2019-04-05T01:16:30.148Z,92.90
2019-04-05T01:17:30.134Z,96.40
2019-04-05T01:18:33.048Z,92.10
2019-04-05T01:19:30.114Z,95.50
2019-04-05T01:20:30.127Z,94.70
2019-04-05T01:21:30.094Z,93.60
2019-04-05T01:22:30.085Z,91.80
2019-04-05T01:23:30.071Z,94.00
2019-04-05T01:24:30.055Z,93.00
2019-04-05T01:25:30.059Z,91.80
2019-04-05T01:26:30.039Z,97.20
2019-04-05T01:27:30.027Z,97.40
2019-04-05T01:28:30.079Z,99.40
2019-04-05T01:29:30.000Z,97.60
2019-04-05T01:30:29.993Z,93.20
2019-04-05T01:31:32.546Z,97.80
2019-04-05T01:32:32.543Z,96.90
2019-04-05T01:33:29.972Z,92.00
2019-04-05T01:34:29.985Z,95.40
2019-04-05T01:35:29.939Z,94.90
2019-04-05T01:36:29.936Z,97.90
2019-04-05T01:37:29.933Z,96.10
2019-04-05T01:38:29.901Z,94.20
2019-04-05T01:39:29.891Z,93.10
2019-04-05T01:40:29.905Z,95.10
2019-04-05T01:41:29.873Z,97.10
2019-04-05T01:42:29.874Z,90.30
2019-04-05T01:43:29.846Z,99.40
2019-04-05T01:44:29.847Z,94.70
2019-04-05T01:45:29.839Z,94.70
2019-04-05T01:46:29.817Z,96.00
2019-04-05T01:47:29.805Z,95.40
2019-04-05T01:48:29.789Z,102.60
2019-04-05T01:49:29.780Z,100.70
2019-04-05T01:50:29.885Z,97.30
2019-04-05T01:51:29.775Z,98.10
2019-04-05T01:52:29.754Z,100.50
2019-04-05T01:53:29.745Z,98.40
2019-04-05T01:54:29.722Z,97.70
2019-04-05T01:55:29.721Z,94.80
2019-04-05T01:56:29.729Z,98.70
2019-04-05T01:57:29.694Z,97.80
2019-04-05T01:58:29.689Z,96.10
2019-04-05T01:59:29.685Z,103.50
2019-04-05T02:00:29.665Z,99.20
2019-04-05T02:01:29.655Z,96.80
2019-04-05T02:02:29.663Z,101.10
2019-04-05T02:03:30.543Z,99.10
2019-04-05T02:04:29.619Z,98.90
2019-04-05T02:05:29.607Z,97.10
2019-04-05T02:06:29.599Z,97.30
2019-04-05T02:07:29.591Z,103.90
2019-04-05T02:08:29.599Z,105.40
2019-04-05T02:09:29.563Z,100.50
2019-04-05T02:10:29.564Z,98.30
2019-04-05T02:11:29.545Z,98.70
2019-04-05T02:12:29.533Z,105.60
2019-04-05T02:13:29.525Z,102.90
2019-04-05T02:14:29.551Z,102.70
2019-04-05T02:15:29.539Z,98.70
2019-04-05T02:16:29.489Z,99.90
2019-04-05T02:17:29.475Z,102.30
2019-04-05T02:18:29.460Z,101.10
2019-04-05T02:19:29.469Z,102.80
2019-04-05T02:20:29.444Z,101.60
2019-04-05T02:21:29.435Z,101.00
2019-04-05T02:22:29.421Z,101.60
2019-04-05T02:23:29.416Z,102.70
2019-04-05T02:24:29.403Z,101.20
2019-04-05T02:25:29.417Z,102.90
2019-04-05T02:26:29.383Z,98.50
2019-04-05T02:27:29.363Z,100.10
2019-04-05T02:28:29.357Z,102.10
2019-04-05T02:29:29.353Z,102.50
2019-04-05T02:30:29.381Z,104.90
2019-04-05T02:31:29.381Z,104.20
2019-04-05T02:32:29.313Z,102.10
2019-04-05T02:33:29.300Z,103.00
2019-04-05T02:34:29.286Z,102.00
2019-04-05T02:35:29.278Z,96.10
2019-04-05T02:36:29.390Z,104.70
2019-04-05T02:37:29.265Z,103.00
2019-04-05T02:38:29.237Z,102.30
2019-04-05T02:39:29.233Z,105.70
2019-04-05T02:40:29.221Z,104.90
2019-04-05T02:41:29.235Z,102.70
2019-04-05T02:42:29.223Z,106.90
2019-04-05T02:43:29.197Z,103.10
2019-04-05T02:44:29.177Z,106.60
2019-04-05T02:45:29.166Z,110.40
2019-04-05T02:46:29.162Z,105.30
2019-04-05T02:47:29.151Z,107.10
2019-04-05T02:48:29.157Z,104.00
2019-04-05T02:49:29.132Z,105.10
2019-04-05T02:50:29.175Z,104.10
2019-04-05T02:51:29.103Z,103.90
2019-04-05T02:52:29.093Z,101.70
2019-04-05T02:53:29.078Z,109.50
2019-04-05T02:54:29.083Z,103.10
2019-04-05T02:55:29.056Z,105.70
2019-04-05T02:56:29.036Z,106.70
2019-04-05T02:57:29.047Z,103.80
2019-04-05T02:58:29.026Z,110.40
2019-04-05T02:59:29.016Z,104.60
2019-04-05T03:00:29.023Z,103.10
2019-04-05T03:01:28.980Z,105.80
2019-04-05T03:02:28.977Z,106.00
2019-04-05T03:03:28.973Z,104.20
2019-04-05T03:04:28.962Z,105.70
2019-04-05T03:05:28.965Z,106.60
2019-04-05T03:06:28.974Z,103.20
2019-04-05T03:07:28.913Z,99.70
2019-04-05T03:08:28.926Z,103.50
2019-04-05T03:09:28.902Z,105.10
2019-04-05T03:10:28.903Z,110.20
2019-04-05T03:11:28.884Z,102.60
2019-04-05T03:12:28.885Z,101.80
2019-04-05T03:13:28.852Z,99.70
2019-04-05T03:14:28.844Z,105.50
2019-04-05T03:15:28.829Z,105.30
2019-04-05T03:16:40.174Z,100.80
2019-04-05T03:17:28.807Z,98.00
2019-04-05T03:18:28.831Z,97.90
2019-04-05T03:19:28.786Z,98.80
2019-04-05T03:20:29.578Z,95.20
2019-04-05T03:21:28.762Z,96.60
2019-04-05T03:22:28.758Z,97.90
2019-04-05T03:23:28.780Z,99.30
2019-04-05T03:24:28.729Z,105.10
2019-04-05T03:25:28.743Z,101.80
2019-04-05T03:26:28.707Z,99.60
2019-04-05T03:27:28.707Z,101.20
2019-04-05T03:28:28.688Z,107.10
2019-04-05T03:29:28.682Z,106.40
2019-04-05T03:30:28.689Z,105.80
2019-04-05T03:31:29.549Z,102.40
2019-04-05T03:32:31.511Z,104.30
2019-04-05T03:33:28.635Z,105.30
2019-04-05T03:34:31.522Z,101.40
2019-04-05T03:35:28.616Z,103.70
2019-04-05T03:36:28.666Z,103.70
2019-04-05T03:37:28.588Z,107.20
2019-04-05T03:38:28.591Z,101.50
2019-04-05T03:39:28.572Z,103.50
2019-04-05T03:40:28.569Z,106.60
2019-04-05T03:42:27.588Z,107.50
2019-04-05T03:43:28.518Z,105.40
2019-04-05T03:44:28.525Z,105.40
2019-04-05T03:45:28.504Z,105.70
2019-04-05T03:46:29.004Z,107.70
2019-04-05T03:47:28.509Z,118.50
2019-04-05T03:48:28.467Z,120.20
2019-04-05T03:49:28.473Z,112.50
2019-04-05T03:50:28.488Z,108.60
2019-04-05T03:51:28.431Z,109.80
2019-04-05T03:52:28.433Z,113.10
2019-04-05T03:53:28.414Z,115.10
2019-04-05T03:54:28.401Z,116.60
2019-04-05T03:55:28.389Z,119.60
2019-04-05T03:56:28.416Z,118.00
2019-04-05T03:57:28.368Z,122.20
2019-04-05T03:58:28.353Z,119.40
2019-04-05T04:00:27.336Z,113.30
2019-04-05T04:01:28.324Z,127.70
2019-04-05T04:02:28.346Z,121.20
2019-04-05T04:03:28.304Z,119.50
2019-04-05T04:04:28.300Z,125.30
2019-04-05T04:05:28.285Z,115.50
2019-04-05T04:06:28.275Z,117.50
2019-04-05T04:07:29.007Z,121.70
2019-04-05T04:08:28.253Z,121.80
2019-04-05T04:09:28.246Z,122.00
2019-04-05T04:11:27.291Z,119.50
2019-04-05T04:12:28.203Z,118.50
2019-04-05T04:13:28.215Z,124.20
2019-04-05T04:14:28.188Z,117.30
2019-04-05T04:15:28.176Z,115.70
2019-04-05T04:16:28.158Z,123.50
2019-04-05T04:17:28.152Z,120.50
2019-04-05T04:18:28.135Z,126.20
2019-04-05T04:19:28.153Z,121.10
2019-04-05T04:20:28.130Z,120.40
2019-04-05T04:21:28.116Z,116.60
2019-04-05T04:22:28.098Z,118.10
2019-04-05T04:23:28.090Z,115.40
2019-04-05T04:24:28.085Z,118.50
2019-04-05T04:25:28.093Z,110.40
2019-04-05T04:26:28.056Z,114.20
2019-04-05T04:27:28.052Z,114.90
2019-04-05T04:28:28.038Z,111.70
2019-04-05T04:29:28.023Z,114.50
2019-04-05T04:30:28.011Z,114.50
2019-04-05T04:31:28.020Z,111.80
2019-04-05T04:32:27.986Z,112.10
2019-04-05T04:33:27.972Z,119.50
2019-04-05T04:34:27.971Z,111.90
2019-04-05T04:35:27.953Z,116.50
2019-04-05T04:36:27.944Z,117.30
2019-04-05T04:37:27.953Z,113.60
2019-04-05T04:38:27.930Z,122.10
2019-04-05T04:39:27.913Z,117.70
2019-04-05T04:40:27.909Z,113.90
2019-04-05T04:41:30.161Z,112.20
2019-04-05T04:42:27.926Z,114.50
2019-04-05T04:43:27.888Z,110.30
2019-04-05T04:44:30.494Z,124.70
2019-04-05T04:45:27.842Z,119.30
2019-04-05T04:46:27.832Z,114.20
2019-04-05T04:47:27.821Z,118.50
2019-04-05T04:48:27.827Z,114.90
2019-04-05T04:49:27.817Z,117.40
2019-04-05T04:50:30.486Z,112.90
2019-04-05T04:51:27.779Z,115.30
2019-04-05T04:52:27.770Z,111.00
2019-04-05T04:53:27.774Z,118.00
2019-04-05T04:54:27.758Z,117.40
2019-04-05T04:55:27.730Z,115.00
2019-04-05T04:56:27.721Z,124.90
2019-04-05T04:57:27.715Z,117.70
2019-04-05T04:58:27.703Z,122.30
2019-04-05T04:59:30.483Z,124.70
2019-04-05T05:00:27.680Z,132.60
2019-04-05T05:01:27.692Z,137.10
2019-04-05T05:02:27.664Z,121.40
2019-04-05T05:03:27.649Z,128.00
2019-04-05T05:05:26.648Z,122.80
2019-04-05T05:06:27.613Z,120.30
2019-04-05T05:07:27.604Z,121.00
2019-04-05T05:08:27.588Z,119.50
2019-04-05T05:09:27.579Z,122.20
2019-04-05T05:10:27.969Z,132.50
2019-04-05T05:11:27.559Z,126.20
2019-04-05T05:12:27.553Z,122.30
2019-04-05T05:13:27.548Z,118.80
2019-04-05T05:14:27.528Z,123.10
2019-04-05T05:15:27.573Z,131.70
2019-04-05T05:16:27.531Z,124.90
2019-04-05T05:17:37.713Z,120.40
2019-04-05T05:18:27.479Z,126.90
2019-04-05T05:19:27.479Z,123.50
2019-04-05T05:20:27.459Z,124.10
2019-04-05T05:21:27.449Z,125.80
2019-04-05T05:22:27.465Z,130.10
2019-04-05T05:23:27.446Z,127.50
2019-04-05T05:24:27.465Z,112.50
2019-04-05T05:25:27.408Z,126.70
2019-04-05T05:27:26.377Z,125.00
2019-04-05T05:28:27.978Z,127.10
2019-04-05T05:29:27.385Z,127.10
2019-04-05T05:30:27.350Z,126.30
2019-04-05T05:31:27.338Z,116.80
2019-04-05T05:32:27.337Z,114.40
2019-04-05T05:33:27.314Z,114.60
2019-04-05T05:34:27.310Z,117.50
2019-04-05T05:35:27.316Z,114.10
2019-04-05T05:36:27.287Z,111.40
2019-04-05T05:37:27.271Z,108.70
2019-04-05T05:38:27.975Z,120.30
2019-04-05T05:39:27.251Z,126.60
2019-04-05T05:40:34.796Z,113.90
2019-04-05T05:41:27.234Z,118.00
2019-04-05T05:42:27.215Z,115.90
2019-04-05T05:43:27.210Z,110.30
2019-04-05T05:44:29.975Z,117.10
2019-04-05T05:45:27.183Z,119.20
2019-04-05T05:46:27.203Z,116.40
2019-04-05T05:47:27.161Z,123.40
2019-04-05T05:48:27.171Z,117.80
2019-04-05T05:49:27.146Z,113.10
2019-04-05T05:50:27.129Z,119.50
2019-04-05T05:51:27.133Z,115.50
2019-04-05T05:52:27.509Z,118.50
2019-04-05T05:53:29.978Z,123.20
2019-04-05T05:54:27.090Z,122.40
2019-04-05T05:55:29.913Z,126.80
2019-04-05T05:56:27.065Z,124.60
2019-04-05T05:57:27.056Z,111.10
2019-04-05T05:58:27.252Z,131.10
2019-04-05T05:59:27.715Z,122.30
2019-04-05T06:00:30.260Z,121.40
2019-04-05T06:01:27.010Z,124.10
2019-04-05T06:02:27.005Z,115.50
2019-04-05T06:03:26.987Z,119.10
2019-04-05T06:04:27.003Z,116.30
2019-04-05T06:05:27.469Z,114.40
2019-04-05T06:06:26.948Z,117.90
2019-04-05T06:07:26.941Z,118.50
2019-04-05T06:08:29.229Z,117.50
2019-04-05T06:09:29.481Z,113.90
2019-04-05T06:10:26.940Z,117.80
2019-04-05T06:11:29.471Z,123.80
2019-04-05T06:12:26.906Z,116.90
2019-04-05T06:13:26.885Z,115.40
2019-04-05T06:14:26.878Z,111.80
2019-04-05T06:15:26.861Z,112.20
2019-04-05T06:16:26.874Z,117.00
2019-04-05T06:17:29.464Z,114.20
2019-04-05T06:18:26.975Z,117.50
2019-04-05T06:19:26.823Z,114.60
2019-04-05T06:20:26.804Z,111.60
2019-04-05T06:21:26.793Z,112.80
2019-04-05T06:22:28.504Z,116.70
2019-04-05T06:23:33.628Z,112.80
2019-04-05T06:24:26.770Z,112.30
2019-04-05T06:25:26.750Z,112.20
2019-04-05T06:26:26.735Z,109.40
2019-04-05T06:27:27.508Z,115.20
2019-04-05T06:28:26.771Z,105.10
2019-04-05T06:29:26.701Z,122.90
2019-04-05T06:30:28.724Z,115.00
2019-04-05T06:31:26.680Z,114.90
2019-04-05T06:32:26.696Z,113.00
2019-04-05T06:33:31.666Z,108.00
2019-04-05T06:34:26.662Z,119.40
2019-04-05T06:35:26.633Z,113.50
2019-04-05T06:36:26.632Z,115.20
2019-04-05T06:37:26.619Z,109.00
2019-04-05T06:38:26.609Z,109.80
2019-04-05T06:39:26.619Z,112.40
2019-04-05T06:40:39.731Z,113.60
2019-04-05T06:41:26.568Z,114.10
2019-04-05T06:42:26.572Z,106.20
2019-04-05T06:43:26.557Z,110.20
2019-04-05T06:44:27.944Z,106.80
2019-04-05T06:45:26.565Z,104.40
2019-04-05T06:46:29.466Z,111.50
2019-04-05T06:47:26.504Z,103.10
2019-04-05T06:48:29.355Z,108.20
2019-04-05T06:49:26.499Z,107.50
2019-04-05T06:50:26.508Z,105.20
2019-04-05T06:51:26.475Z,106.90
2019-04-05T06:52:26.457Z,105.60
2019-04-05T06:53:26.439Z,111.00
2019-04-05T06:54:26.432Z,102.60
2019-04-05T06:55:26.415Z,105.80
2019-04-05T06:56:26.424Z,112.20
2019-04-05T06:57:26.396Z,110.50
2019-04-05T06:58:28.858Z,100.80
2019-04-05T06:59:26.376Z,107.30
2019-04-05T07:00:26.373Z,103.30
2019-04-05T07:01:26.349Z,107.70
2019-04-05T07:02:26.382Z,101.20
2019-04-05T07:03:26.325Z,104.00
2019-04-05T07:04:26.957Z,107.80
2019-04-05T07:05:26.315Z,101.20
2019-04-05T07:06:26.308Z,104.00
2019-04-05T07:07:26.281Z,95.70
2019-04-05T07:08:26.299Z,103.40
2019-04-05T07:09:26.269Z,109.20
2019-04-05T07:10:26.254Z,100.70
2019-04-05T07:11:28.956Z,97.10
2019-04-05T07:12:26.233Z,95.40
2019-04-05T07:13:27.523Z,99.00
2019-04-05T07:14:26.259Z,97.80
2019-04-05T07:15:26.203Z,101.70
2019-04-05T07:16:26.188Z,103.70
2019-04-05T07:17:26.184Z,93.10
2019-04-05T07:18:33.959Z,96.20
2019-04-05T07:19:26.353Z,94.20
2019-04-05T07:20:26.138Z,96.30
2019-04-05T07:21:26.133Z,91.40
2019-04-05T07:22:36.981Z,96.90
2019-04-05T07:23:26.121Z,95.30
2019-04-05T07:24:26.098Z,94.10
2019-04-05T07:25:29.136Z,104.30
2019-04-05T07:26:26.080Z,103.90
2019-04-05T07:27:26.065Z,97.20
2019-04-05T07:28:26.057Z,96.80
2019-04-05T07:29:26.072Z,96.30
2019-04-05T07:30:28.729Z,101.20
2019-04-05T07:31:27.952Z,99.90
2019-04-05T07:32:26.057Z,95.10
2019-04-05T07:33:26.014Z,98.30
2019-04-05T07:34:25.982Z,99.70
2019-04-05T07:35:33.366Z,103.70
2019-04-05T07:36:25.968Z,95.10
2019-04-05T07:37:25.986Z,104.00
2019-04-05T07:38:25.948Z,100.00
2019-04-05T07:39:26.083Z,94.20
2019-04-05T07:40:25.926Z,99.10
2019-04-05T07:41:25.910Z,100.70
2019-04-05T07:42:25.899Z,95.80
2019-04-05T07:43:25.888Z,97.70
2019-04-05T07:44:25.879Z,99.40
2019-04-05T07:45:25.891Z,100.70
2019-04-05T07:46:25.848Z,100.10
2019-04-05T07:47:25.859Z,93.00
2019-04-05T07:48:25.873Z,92.40
2019-04-05T07:49:25.821Z,96.30
2019-04-05T07:50:25.988Z,94.00
2019-04-05T07:51:25.797Z,94.60
2019-04-05T07:52:25.789Z,95.50
2019-04-05T07:53:25.788Z,94.00
2019-04-05T07:54:25.759Z,89.80
2019-04-05T07:55:25.878Z,93.40
2019-04-05T07:56:25.746Z,89.40
2019-04-05T07:57:25.739Z,94.60
2019-04-05T07:58:25.719Z,96.90
2019-04-05T07:59:25.735Z,96.80
2019-04-05T08:00:25.712Z,98.50
2019-04-05T08:01:25.733Z,94.50
2019-04-05T08:02:25.690Z,90.90
2019-04-05T08:03:25.661Z,88.00
2019-04-05T08:04:25.681Z,95.60
2019-04-05T08:05:25.656Z,99.40
2019-04-05T08:06:28.443Z,95.40
2019-04-05T08:07:25.650Z,98.00
2019-04-05T08:08:25.611Z,96.10
2019-04-05T08:09:25.608Z,94.30
2019-04-05T08:10:25.594Z,91.50
2019-04-05T08:11:25.584Z,95.50
2019-04-05T08:12:25.573Z,90.10
2019-04-05T08:13:25.580Z,92.60
2019-04-05T08:14:25.562Z,94.30
2019-04-05T08:15:25.550Z,85.70
2019-04-05T08:16:25.535Z,95.70
2019-04-05T08:17:25.522Z,89.90
2019-04-05T08:18:25.502Z,94.50
2019-04-05T08:19:25.527Z,94.20
2019-04-05T08:20:25.607Z,93.90
2019-04-05T08:21:25.472Z,98.90
2019-04-05T08:22:25.466Z,86.30
2019-04-05T08:23:25.455Z,90.00
2019-04-05T08:24:25.446Z,94.40
2019-04-05T08:25:25.433Z,86.40
2019-04-05T08:26:25.444Z,89.30
2019-04-05T08:27:25.411Z,87.50
2019-04-05T08:28:25.398Z,86.80
2019-04-05T08:29:25.390Z,90.20
2019-04-05T08:30:25.377Z,85.90
2019-04-05T08:31:25.366Z,89.00
2019-04-05T08:32:25.387Z,92.50
2019-04-05T08:33:25.354Z,83.80
2019-04-05T08:34:25.329Z,83.30
2019-04-05T08:35:25.324Z,85.20
2019-04-05T08:36:25.932Z,87.90
2019-04-05T08:37:25.332Z,81.70
2019-04-05T08:38:25.301Z,89.20
2019-04-05T08:39:25.285Z,85.50
2019-04-05T08:40:25.273Z,89.50
2019-04-05T08:41:25.251Z,88.10
2019-04-05T08:42:25.249Z,86.70
2019-04-05T08:43:25.266Z,91.30
2019-04-05T08:44:25.223Z,83.20
2019-04-05T08:46:24.208Z,89.60
2019-04-05T08:47:25.201Z,88.50
2019-04-05T08:48:25.174Z,88.40
2019-04-05T08:49:25.219Z,85.30
2019-04-05T08:50:25.158Z,85.60
2019-04-05T08:51:25.155Z,80.50
2019-04-05T08:52:27.061Z,83.50
2019-04-05T08:53:25.119Z,86.50
2019-04-05T08:54:32.474Z,85.50
2019-04-05T08:55:25.107Z,85.10
2019-04-05T08:56:25.111Z,80.70
2019-04-05T08:57:25.079Z,82.00
2019-04-05T08:58:33.316Z,79.00
2019-04-05T08:59:25.058Z,80.20
2019-04-05T09:00:25.098Z,81.50
2019-04-05T09:01:25.056Z,79.30
2019-04-05T09:02:25.035Z,76.50
2019-04-05T09:03:25.927Z,75.70
2019-04-05T09:04:25.013Z,83.90
2019-04-05T09:05:24.999Z,81.80
2019-04-05T09:06:25.022Z,103.60
2019-04-05T09:07:24.976Z,91.90
2019-04-05T09:08:24.961Z,79.50
2019-04-05T09:09:24.958Z,77.20
2019-04-05T09:10:24.947Z,73.50
2019-04-05T09:11:24.944Z,78.80
2019-04-05T09:12:24.937Z,72.60
2019-04-05T09:13:24.929Z,75.80
2019-04-05T09:14:24.891Z,76.90
2019-04-05T09:15:24.876Z,75.30
2019-04-05T09:16:24.882Z,70.90
2019-04-05T09:17:24.899Z,71.50
2019-04-05T09:18:24.853Z,66.20
2019-04-05T09:19:25.463Z,70.60
2019-04-05T09:20:24.906Z,75.30
2019-04-05T09:21:24.819Z,72.70
2019-04-05T09:22:24.824Z,70.40
2019-04-05T09:23:24.810Z,75.80
2019-04-05T09:24:24.800Z,72.60
2019-04-05T09:25:24.780Z,75.10
2019-04-05T09:26:24.791Z,68.00
2019-04-05T09:27:27.424Z,72.40
2019-04-05T09:28:24.747Z,68.80
2019-04-05T09:29:24.733Z,76.30
2019-04-05T09:30:24.755Z,83.50
2019-04-05T09:31:24.708Z,77.60
2019-04-05T09:32:24.697Z,70.90
2019-04-05T09:33:24.684Z,71.20
2019-04-05T09:34:24.685Z,68.00
2019-04-05T09:35:24.665Z,74.20
2019-04-05T09:36:25.463Z,69.30
2019-04-05T09:37:24.644Z,70.00
2019-04-05T09:38:24.633Z,73.40
2019-04-05T09:39:24.621Z,68.70
2019-04-05T09:40:24.622Z,60.50
2019-04-05T09:41:24.614Z,65.40
2019-04-05T09:42:24.613Z,61.30
2019-04-05T09:43:24.632Z,69.20
2019-04-05T09:44:24.574Z,69.90
2019-04-05T09:45:24.553Z,62.70
2019-04-05T09:46:24.537Z,68.30
2019-04-05T09:47:24.531Z,69.90
2019-04-05T09:48:24.734Z,69.20
2019-04-05T09:49:36.109Z,65.60
2019-04-05T09:50:24.513Z,63.60
2019-04-05T09:51:24.488Z,64.80
2019-04-05T09:52:24.490Z,61.40
2019-04-05T09:53:24.466Z,63.90
2019-04-05T09:54:24.496Z,59.10
2019-04-05T09:55:24.446Z,58.40
2019-04-05T09:56:24.435Z,59.60
2019-04-05T09:57:24.434Z,59.20
2019-04-05T09:58:24.417Z,62.40
2019-04-05T09:59:24.395Z,63.50
2019-04-05T10:00:24.435Z,61.90
2019-04-05T10:01:24.421Z,64.50
2019-04-05T10:02:24.367Z,60.00
2019-04-05T10:03:24.359Z,63.90
2019-04-05T10:04:24.355Z,64.80
2019-04-05T10:05:24.336Z,61.20
2019-04-05T10:06:24.365Z,60.20
2019-04-05T10:07:24.314Z,66.40
2019-04-05T10:08:24.298Z,66.50
2019-04-05T10:09:24.285Z,63.70
2019-04-05T10:10:24.304Z,59.40
2019-04-05T10:11:24.271Z,58.50
2019-04-05T10:12:24.275Z,58.30
2019-04-05T10:13:24.912Z,59.60
2019-04-05T10:14:24.241Z,56.30
2019-04-05T10:15:24.216Z,57.40
2019-04-05T10:16:24.214Z,59.00
2019-04-05T10:17:24.239Z,59.20
2019-04-05T10:18:24.188Z,60.80
2019-04-05T10:19:24.178Z,56.50
2019-04-05T10:21:23.155Z,59.80
2019-04-05T10:22:24.147Z,53.00
2019-04-05T10:23:24.162Z,54.90
2019-04-05T10:24:24.911Z,54.60
2019-04-05T10:25:24.118Z,58.20
2019-04-05T10:26:24.112Z,58.20
2019-04-05T10:27:24.094Z,61.40
2019-04-05T10:28:24.081Z,57.70
2019-04-05T10:29:24.118Z,58.10
2019-04-05T10:30:24.058Z,60.10
2019-04-05T10:31:24.052Z,59.30
2019-04-05T10:32:24.047Z,53.10
2019-04-05T10:33:24.070Z,55.60
2019-04-05T10:34:24.008Z,56.10
2019-04-05T10:35:24.045Z,51.50
2019-04-05T10:36:24.036Z,57.10
2019-04-05T10:37:23.985Z,54.40
2019-04-05T10:38:23.967Z,54.50
2019-04-05T10:39:23.965Z,54.80
2019-04-05T10:40:23.944Z,59.20
2019-04-05T10:41:23.973Z,58.00
2019-04-05T10:42:23.969Z,58.50
2019-04-05T10:43:23.916Z,53.70
2019-04-05T10:44:23.903Z,61.40
2019-04-05T10:45:23.905Z,58.40
2019-04-05T10:46:23.875Z,58.90
2019-04-05T10:47:23.951Z,65.00
2019-04-05T10:48:23.860Z,58.70
2019-04-05T10:49:24.404Z,64.00
2019-04-05T10:50:26.413Z,60.80
2019-04-05T10:51:26.405Z,60.80
2019-04-05T10:52:23.885Z,59.10
2019-04-05T10:53:23.810Z,58.90
2019-04-05T10:54:24.406Z,59.30
2019-04-05T10:55:23.781Z,54.20
2019-04-05T10:56:23.773Z,56.20
2019-04-05T10:57:23.757Z,58.40
2019-04-05T10:58:23.778Z,58.20
2019-04-05T11:01:22.709Z,55.50
2019-04-05T11:02:24.401Z,59.60
2019-04-05T11:03:26.438Z,61.50
2019-04-05T11:04:23.712Z,58.30
2019-04-05T11:05:23.703Z,56.10
2019-04-05T11:06:23.661Z,55.10
2019-04-05T11:07:23.651Z,58.40
2019-04-05T11:08:23.639Z,56.00
2019-04-05T11:09:23.628Z,56.40
2019-04-05T11:10:26.406Z,55.40
2019-04-05T11:11:23.615Z,53.90
2019-04-05T11:12:23.595Z,56.40
2019-04-05T11:13:23.586Z,55.10
2019-04-05T11:14:23.573Z,56.80
2019-04-05T11:15:25.467Z,54.80
2019-04-05T11:16:23.558Z,51.70
2019-04-05T11:17:24.399Z,50.40
2019-04-05T11:18:23.534Z,51.00
2019-04-05T11:19:23.530Z,49.60
2019-04-05T11:20:26.397Z,50.80
2019-04-05T11:21:23.498Z,52.90
2019-04-05T11:22:23.548Z,53.60
2019-04-05T11:23:23.506Z,53.40
2019-04-05T11:24:23.463Z,56.40
2019-04-05T11:25:23.454Z,55.10
2019-04-05T11:26:23.445Z,54.70
2019-04-05T11:27:23.431Z,54.10
2019-04-05T11:28:23.423Z,56.90
2019-04-05T11:29:23.431Z,54.20
2019-04-05T11:30:23.401Z,53.90
2019-04-05T11:31:23.397Z,52.10
2019-04-05T11:32:23.379Z,53.50
2019-04-05T11:33:23.361Z,54.00
2019-04-05T11:34:23.437Z,55.90
2019-04-05T11:35:23.350Z,47.10
2019-04-05T11:36:25.899Z,51.50
2019-04-05T11:37:23.319Z,49.40
2019-04-05T11:38:25.903Z,49.80
2019-04-05T11:39:23.301Z,50.80
2019-04-05T11:40:24.219Z,55.10
2019-04-05T11:41:23.307Z,48.70
2019-04-05T11:42:25.895Z,51.40
2019-04-05T11:43:26.232Z,53.80
2019-04-05T11:44:23.250Z,52.40
2019-04-05T11:45:23.230Z,53.40
2019-04-05T11:46:23.463Z,54.10
2019-04-05T11:47:23.215Z,55.20
2019-04-05T11:48:23.202Z,53.10
2019-04-05T11:49:23.185Z,55.10
2019-04-05T11:50:33.920Z,51.30
2019-04-05T11:51:23.171Z,51.60
2019-04-05T11:52:23.180Z,50.40
2019-04-05T11:53:23.139Z,47.90
2019-04-05T11:54:23.136Z,52.00
2019-04-05T11:55:23.125Z,51.30
2019-04-05T11:56:23.109Z,48.30
2019-04-05T11:57:23.100Z,50.20
2019-04-05T11:58:23.120Z,50.40
2019-04-05T11:59:23.077Z,55.50
2019-04-05T12:00:23.929Z,52.60
2019-04-05T12:01:23.666Z,51.50
2019-04-05T12:02:23.053Z,48.50
2019-04-05T12:03:23.028Z,48.80
2019-04-05T12:04:23.020Z,52.00
2019-04-05T12:05:26.850Z,49.70
2019-04-05T12:06:22.997Z,48.60
2019-04-05T12:07:26.281Z,46.80
2019-04-05T12:08:22.984Z,47.70
2019-04-05T12:09:22.971Z,48.90
2019-04-05T12:10:22.959Z,46.50
2019-04-05T12:11:23.903Z,47.50
2019-04-05T12:12:25.504Z,46.10
2019-04-05T12:13:23.461Z,44.10
2019-04-05T12:14:30.022Z,43.70
2019-04-05T12:15:22.937Z,44.30
2019-04-05T12:16:22.894Z,50.40
2019-04-05T12:17:22.877Z,47.60
2019-04-05T12:18:22.882Z,43.80
2019-04-05T12:19:22.859Z,46.60
2019-04-05T12:20:22.858Z,45.00
2019-04-05T12:21:22.874Z,42.30
2019-04-05T12:22:22.828Z,47.80
2019-04-05T12:23:22.808Z,47.40
2019-04-05T12:24:22.807Z,45.30
2019-04-05T12:25:22.824Z,43.70
2019-04-05T12:26:22.781Z,48.50
2019-04-05T12:27:22.787Z,45.60
2019-04-05T12:28:22.764Z,44.20
2019-04-05T12:29:22.748Z,46.10
2019-04-05T12:30:22.730Z,44.50
2019-04-05T12:31:22.753Z,42.30
2019-04-05T12:32:33.038Z,45.40
2019-04-05T12:33:22.721Z,45.80
2019-04-05T12:34:22.697Z,44.20
2019-04-05T12:35:22.680Z,40.30
2019-04-05T12:36:22.790Z,50.60
2019-04-05T12:37:22.664Z,47.00
2019-04-05T12:38:28.342Z,44.50
2019-04-05T12:39:22.672Z,47.30
2019-04-05T12:40:22.629Z,45.30
2019-04-05T12:41:22.631Z,47.30
2019-04-05T12:42:22.606Z,46.90
2019-04-05T12:43:22.603Z,45.80
2019-04-05T12:44:22.615Z,48.70
2019-04-05T12:45:22.588Z,49.00
2019-04-05T12:46:22.560Z,43.20
2019-04-05T12:47:22.558Z,42.90
2019-04-05T12:48:22.553Z,44.00
2019-04-05T12:49:22.533Z,42.70
2019-04-05T12:50:22.549Z,45.60
2019-04-05T12:51:22.509Z,42.80
2019-04-05T12:52:25.109Z,43.20
2019-04-05T12:53:22.490Z,42.00